createdAt,value
2019-03-13T00:00:42.917Z,11.00
2019-03-13T00:03:14.603Z,11.00
2019-03-13T00:05:45.442Z,11.00
2019-03-13T00:08:16.521Z,11.00
2019-03-13T00:10:47.601Z,11.00
2019-03-13T00:13:18.803Z,11.00
2019-03-13T00:15:50.334Z,11.00
2019-03-13T00:18:22.285Z,10.90
2019-03-13T00:20:53.487Z,10.90
2019-03-13T00:23:24.690Z,10.90
2019-03-13T00:25:56.009Z,10.90
2019-03-13T00:28:26.973Z,10.90
2019-03-13T00:30:58.413Z,10.90
2019-03-13T00:33:29.615Z,10.90
2019-03-13T00:36:00.457Z,10.90
2019-03-13T00:38:31.298Z,10.90
2019-03-13T00:41:02.618Z,10.90
2019-03-13T00:43:33.457Z,10.80
2019-03-13T00:46:04.901Z,10.80
2019-03-13T00:48:35.748Z,10.80
2019-03-13T00:51:06.582Z,10.80
2019-03-13T00:53:37.063Z,10.90
2019-03-13T00:56:08.389Z,10.90
2019-03-13T00:58:39.707Z,10.90
2019-03-13T01:01:20.269Z,11.00
2019-03-13T01:04:12.949Z,10.90
2019-03-13T01:06:47.511Z,11.00
2019-03-13T01:09:18.712Z,11.00
2019-03-13T01:11:49.798Z,11.00
2019-03-13T01:14:20.873Z,11.00
2019-03-13T01:16:52.435Z,10.80
2019-03-13T01:19:23.515Z,10.80
2019-03-13T01:21:54.719Z,10.60
2019-03-13T01:24:25.616Z,10.50
2019-03-13T01:26:56.880Z,10.40
2019-03-13T01:29:27.607Z,10.30
2019-03-13T01:32:20.283Z,10.20
2019-03-13T01:37:45.126Z,10.20
2019-03-13T01:40:16.328Z,10.30
2019-03-13T01:42:47.648Z,10.40
2019-03-13T01:45:19.217Z,10.50
2019-03-13T01:47:50.414Z,10.50
2019-03-13T01:50:21.250Z,10.50
2019-03-13T01:52:52.334Z,10.60
2019-03-13T01:55:22.936Z,10.60
2019-03-13T01:57:54.622Z,10.60
2019-03-13T02:00:25.346Z,10.70
2019-03-13T02:02:57.618Z,10.70
2019-03-13T02:05:28.941Z,10.50
2019-03-13T02:08:00.504Z,10.60
2019-03-13T02:10:32.183Z,10.70
2019-03-13T02:13:03.504Z,10.70
2019-03-13T02:15:34.468Z,10.70
2019-03-13T02:18:05.786Z,10.60
2019-03-13T02:20:37.349Z,10.60
2019-03-13T02:23:09.748Z,10.70
2019-03-13T02:25:40.711Z,10.60
2019-03-13T02:28:11.792Z,10.70
2019-03-13T02:30:43.113Z,10.60
2019-03-13T02:33:14.320Z,10.60
2019-03-13T02:35:45.803Z,10.60
2019-03-13T02:38:16.849Z,10.60
2019-03-13T02:40:48.037Z,10.70
2019-03-13T02:43:19.367Z,10.80
2019-03-13T02:45:50.323Z,10.80
2019-03-13T02:51:44.803Z,10.60
2019-03-13T02:54:16.009Z,10.40
2019-03-13T02:56:47.210Z,10.40
2019-03-13T02:59:18.287Z,10.50
2019-03-13T03:02:04.252Z,10.70
2019-03-13T03:04:35.212Z,10.50
2019-03-13T03:07:06.532Z,10.40
2019-03-13T03:09:38.218Z,10.50
2019-03-13T03:12:09.291Z,10.60
2019-03-13T03:14:40.496Z,10.80
2019-03-13T03:17:11.459Z,10.60
2019-03-13T03:19:43.022Z,10.40
2019-03-13T03:22:13.983Z,10.20
2019-03-13T03:24:45.662Z,10.10
2019-03-13T03:27:16.384Z,10.00
2019-03-13T03:29:47.583Z,10.00
2019-03-13T03:32:19.025Z,10.00
2019-03-13T03:34:50.107Z,10.00
2019-03-13T03:37:21.067Z,9.90
2019-03-13T03:39:52.506Z,9.90
2019-03-13T03:42:24.069Z,9.80
2019-03-13T03:44:55.393Z,9.90
2019-03-13T03:47:26.476Z,10.00
2019-03-13T03:50:00.293Z,9.80
2019-03-13T03:52:31.274Z,9.50
2019-03-13T03:55:02.720Z,9.60
2019-03-13T03:57:33.677Z,9.60
2019-03-13T04:00:05.358Z,9.60
2019-03-13T04:02:36.319Z,9.70
2019-03-13T04:05:07.585Z,9.80
2019-03-13T04:07:44.616Z,9.80
2019-03-13T04:10:16.205Z,9.50
2019-03-13T04:12:47.967Z,9.60
2019-03-13T04:15:19.646Z,9.60
2019-03-13T04:17:50.609Z,9.50
2019-03-13T04:20:21.573Z,9.50
2019-03-13T04:22:52.413Z,9.50
2019-03-13T04:25:33.455Z,9.50
2019-03-13T04:28:04.775Z,9.70
2019-03-13T04:30:35.977Z,9.70
2019-03-13T04:33:07.060Z,9.80
2019-03-13T04:35:38.256Z,9.90
2019-03-13T04:38:09.343Z,9.90
2019-03-13T04:40:40.299Z,9.90
2019-03-13T04:43:11.618Z,10.00
2019-03-13T04:45:42.100Z,10.00
2019-03-13T04:48:13.183Z,9.90
2019-03-13T04:50:44.278Z,9.90
2019-03-13T04:53:15.344Z,10.00
2019-03-13T04:55:46.306Z,9.80
2019-03-13T04:58:17.506Z,9.60
2019-03-13T05:00:49.428Z,9.60
2019-03-13T05:03:20.149Z,9.40
2019-03-13T05:05:54.737Z,9.30
2019-03-13T05:08:44.636Z,9.30
2019-03-13T05:11:07.436Z,9.40
2019-03-13T05:13:38.635Z,9.50
2019-03-13T05:16:09.715Z,9.50
2019-03-13T05:18:41.159Z,9.10
2019-03-13T05:21:12.144Z,9.10
2019-03-13T05:23:44.521Z,9.10
2019-03-13T05:26:15.483Z,9.40
2019-03-13T05:28:46.085Z,9.50
2019-03-13T05:31:17.404Z,9.30
2019-03-13T05:33:48.487Z,9.40
2019-03-13T05:36:19.689Z,9.50
2019-03-13T05:38:51.129Z,9.70
2019-03-13T05:41:22.587Z,9.70
2019-03-13T05:43:54.010Z,9.70
2019-03-13T05:46:25.213Z,9.80
2019-03-13T05:48:56.534Z,9.50
2019-03-13T05:51:27.862Z,9.50
2019-03-13T05:53:59.536Z,9.50
2019-03-13T05:56:30.619Z,9.40
2019-03-13T05:59:01.584Z,9.40
2019-03-13T06:01:32.061Z,9.40
2019-03-13T06:04:03.026Z,9.40
2019-03-13T06:06:35.541Z,9.40
2019-03-13T06:09:09.524Z,9.50
2019-03-13T06:11:40.463Z,9.60
2019-03-13T06:14:11.787Z,9.60
2019-03-13T06:16:43.105Z,9.30
2019-03-13T06:19:14.068Z,9.40
2019-03-13T06:21:45.030Z,9.10
2019-03-13T06:24:16.111Z,9.10
2019-03-13T06:26:50.072Z,8.90
2019-03-13T06:29:23.556Z,8.70
2019-03-13T06:31:54.634Z,8.80
2019-03-13T06:34:26.320Z,8.60
2019-03-13T06:36:57.638Z,8.50
2019-03-13T06:39:31.930Z,8.50
2019-03-13T06:42:02.320Z,8.70
2019-03-13T06:44:34.366Z,8.90
2019-03-13T06:47:05.441Z,8.70
2019-03-13T06:49:36.162Z,8.70
2019-03-13T06:52:07.248Z,8.60
2019-03-13T06:54:39.407Z,8.50
2019-03-13T06:57:10.730Z,8.60
2019-03-13T06:59:58.968Z,8.60
2019-03-13T07:02:35.090Z,8.80
2019-03-13T07:05:16.975Z,8.80
2019-03-13T07:08:10.251Z,8.70
2019-03-13T07:11:06.181Z,8.70
2019-03-13T07:14:02.221Z,8.90
2019-03-13T07:17:01.016Z,8.90
2019-03-13T07:19:59.698Z,8.90
2019-03-13T07:22:48.182Z,9.00
2019-03-13T07:25:28.262Z,8.90
2019-03-13T07:28:13.871Z,8.80
2019-03-13T07:31:13.306Z,8.90
2019-03-13T07:34:00.312Z,9.00
2019-03-13T07:36:56.108Z,9.00
2019-03-13T07:39:34.391Z,8.90
2019-03-13T07:42:27.916Z,9.10
2019-03-13T07:45:21.073Z,9.10
2019-03-13T07:48:22.876Z,9.10
2019-03-13T07:51:11.476Z,9.10
2019-03-13T07:54:00.076Z,9.00
2019-03-13T07:56:48.318Z,9.20
2019-03-13T07:59:38.237Z,9.10
2019-03-13T08:02:27.322Z,9.00
2019-03-13T08:05:19.881Z,8.90
2019-03-13T08:08:16.211Z,8.90
2019-03-13T08:10:59.244Z,9.10
2019-03-13T08:13:54.803Z,9.10
2019-03-13T08:17:03.412Z,9.20
2019-03-13T08:19:50.370Z,9.10
2019-03-13T08:22:59.610Z,9.20
2019-03-13T08:25:37.172Z,9.20
2019-03-13T08:28:39.332Z,9.40
2019-03-13T08:31:19.797Z,9.40
2019-03-13T08:34:09.940Z,9.40
2019-03-13T08:36:58.416Z,9.30
2019-03-13T08:39:55.060Z,9.20
2019-03-13T08:42:44.024Z,9.20
2019-03-13T08:45:39.462Z,9.40
2019-03-13T08:48:38.505Z,9.40
2019-03-13T08:51:37.065Z,9.20
2019-03-13T08:54:29.987Z,9.20
2019-03-13T08:57:25.306Z,9.30
2019-03-13T09:00:15.471Z,9.30
2019-03-13T09:02:54.831Z,9.20
2019-03-13T09:05:47.751Z,9.00
2019-03-13T09:08:36.370Z,9.00
2019-03-13T09:11:44.874Z,9.00
2019-03-13T09:14:23.996Z,9.20
2019-03-13T09:17:08.876Z,9.20
2019-03-13T09:20:04.682Z,9.40
2019-03-13T09:22:55.564Z,9.40
2019-03-13T09:25:45.841Z,9.40
2019-03-13T09:28:37.562Z,9.40
2019-03-13T09:31:27.365Z,9.50
2019-03-13T09:34:16.564Z,9.50
2019-03-13T09:36:59.886Z,9.60
2019-03-13T09:39:56.410Z,9.70
2019-03-13T09:42:48.130Z,9.70
2019-03-13T09:45:56.650Z,9.80
2019-03-13T09:48:48.614Z,9.70
2019-03-13T09:51:41.293Z,9.40
2019-03-13T09:54:34.216Z,9.30
2019-03-13T09:57:30.377Z,9.30
2019-03-13T10:00:13.939Z,9.30
2019-03-13T10:03:06.381Z,9.30
2019-03-13T10:05:54.740Z,9.20
2019-03-13T10:08:42.984Z,9.10
2019-03-13T10:11:24.623Z,9.10
2019-03-13T10:14:18.030Z,9.10
2019-03-13T10:17:09.854Z,9.10
2019-03-13T10:19:48.988Z,9.10
2019-03-13T10:22:51.270Z,9.10
2019-03-13T10:25:49.230Z,9.10
2019-03-13T10:28:25.595Z,9.30
2019-03-13T10:31:11.434Z,9.50
2019-03-13T10:33:57.068Z,9.60
2019-03-13T10:36:33.038Z,9.70
2019-03-13T10:39:30.048Z,9.70
2019-03-13T10:42:19.000Z,9.80
2019-03-13T10:45:04.601Z,9.80
2019-03-13T10:47:57.049Z,9.50
2019-03-13T10:51:04.967Z,9.50
2019-03-13T10:53:54.644Z,9.50
2019-03-13T10:56:47.326Z,9.60
2019-03-13T10:59:31.970Z,9.60
2019-03-13T11:02:31.252Z,9.60
2019-03-13T11:05:24.342Z,9.60
2019-03-13T11:08:14.815Z,9.70
2019-03-13T11:11:07.974Z,9.70
2019-03-13T11:14:15.434Z,10.00
2019-03-13T11:16:58.383Z,10.00
2019-03-13T11:19:46.776Z,10.10
2019-03-13T11:22:29.225Z,9.90
2019-03-13T11:25:22.264Z,9.80
2019-03-13T11:28:12.721Z,9.80
2019-03-13T11:31:05.827Z,9.90
2019-03-13T11:33:55.985Z,9.60
2019-03-13T11:36:45.668Z,9.10
2019-03-13T11:39:47.593Z,9.00
2019-03-13T11:42:41.469Z,9.00
2019-03-13T11:45:43.277Z,9.30
2019-03-13T11:48:31.272Z,9.30
2019-03-13T11:51:33.435Z,9.50
2019-03-13T11:54:15.798Z,9.80
2019-03-13T11:57:05.837Z,9.70
2019-03-13T12:00:02.718Z,9.60
2019-03-13T12:02:54.678Z,9.70
2019-03-13T12:05:43.520Z,9.80
2019-03-13T12:08:42.695Z,9.60
2019-03-13T12:11:20.963Z,9.20
2019-03-13T12:14:07.764Z,9.30
2019-03-13T12:16:58.047Z,9.30
2019-03-13T12:19:38.252Z,9.40
2019-03-13T12:22:36.810Z,9.30
2019-03-13T12:25:23.015Z,9.30
2019-03-13T12:28:15.932Z,9.30
2019-03-13T12:31:13.913Z,9.50
2019-03-13T12:34:01.537Z,9.50
2019-03-13T12:36:55.897Z,9.60
2019-03-13T12:39:38.260Z,9.60
2019-03-13T12:42:40.661Z,9.70
2019-03-13T12:45:32.741Z,9.70
2019-03-13T12:48:37.904Z,9.70
2019-03-13T12:51:19.183Z,9.70
2019-03-13T12:54:06.827Z,9.70
2019-03-13T12:57:09.227Z,9.80
2019-03-13T13:00:01.909Z,9.60
2019-03-13T13:02:54.916Z,9.40
2019-03-13T13:05:49.435Z,9.50
2019-03-13T13:08:40.006Z,9.50
2019-03-13T13:11:23.995Z,9.50
2019-03-13T13:14:16.805Z,9.50
2019-03-13T13:17:05.041Z,9.60
2019-03-13T13:19:36.243Z,9.60
2019-03-13T13:22:06.962Z,9.40
2019-03-13T13:24:38.522Z,9.50
2019-03-13T13:27:09.361Z,9.70
2019-03-13T13:29:40.563Z,9.70
2019-03-13T13:32:11.645Z,9.80
2019-03-13T13:34:43.687Z,9.90
2019-03-13T13:37:15.007Z,9.90
2019-03-13T13:39:46.252Z,9.60
2019-03-13T13:42:17.170Z,9.50
2019-03-13T13:44:48.493Z,9.70
2019-03-13T13:47:19.575Z,9.70
2019-03-13T13:49:59.597Z,9.90
2019-03-13T13:52:23.773Z,9.90
2019-03-13T13:54:54.737Z,9.90
2019-03-13T13:57:25.583Z,9.90
2019-03-13T13:59:59.112Z,10.10
2019-03-13T14:02:30.622Z,10.10
2019-03-13T14:05:01.942Z,10.00
2019-03-13T14:07:33.431Z,10.10
2019-03-13T14:10:05.183Z,10.40
2019-03-13T14:12:36.398Z,10.60
2019-03-13T14:15:07.108Z,10.90
2019-03-13T14:17:38.069Z,11.00
2019-03-13T14:20:15.388Z,11.10
2019-03-13T14:22:46.351Z,11.40
2019-03-13T14:25:17.311Z,11.60
2019-03-13T14:27:48.391Z,11.70
2019-03-13T14:30:19.602Z,11.70
2019-03-13T14:32:51.273Z,12.00
2019-03-13T14:35:22.353Z,12.00
2019-03-13T14:37:53.439Z,12.00
2019-03-13T14:40:24.998Z,12.00
2019-03-13T14:42:55.840Z,11.90
2019-03-13T14:45:26.919Z,11.50
2019-03-13T14:47:58.121Z,11.30
2019-03-13T14:50:29.568Z,11.20
2019-03-13T14:53:00.765Z,11.40
2019-03-13T14:55:31.605Z,11.30
2019-03-13T14:58:02.690Z,11.20
2019-03-13T15:00:33.650Z,11.00
2019-03-13T15:03:04.849Z,11.00
2019-03-13T15:05:36.170Z,10.90
2019-03-13T15:08:07.132Z,11.10
2019-03-13T15:10:38.213Z,11.40
2019-03-13T15:13:09.535Z,11.70
2019-03-13T15:15:40.495Z,11.70
2019-03-13T15:18:11.698Z,11.60
2019-03-13T15:20:42.778Z,11.40
2019-03-13T15:23:13.859Z,11.30
2019-03-13T15:25:45.782Z,11.10
2019-03-13T15:28:17.667Z,10.80
2019-03-13T15:30:49.144Z,10.40
2019-03-13T15:33:20.593Z,10.20
2019-03-13T15:35:52.392Z,9.70
2019-03-13T15:38:24.908Z,9.60
2019-03-13T15:40:57.967Z,9.80
2019-03-13T15:43:28.630Z,10.30
2019-03-13T15:45:59.832Z,10.60
2019-03-13T15:48:31.034Z,10.60
2019-03-13T15:51:01.760Z,10.60
2019-03-13T15:53:33.314Z,10.60
2019-03-13T15:56:04.755Z,10.50
2019-03-13T15:58:36.080Z,10.50
2019-03-13T16:01:08.238Z,10.50
2019-03-13T16:03:39.320Z,10.70
2019-03-13T16:06:10.644Z,10.50
2019-03-13T16:08:41.848Z,10.20
2019-03-13T16:11:13.406Z,10.10
2019-03-13T16:13:44.606Z,10.20
2019-03-13T16:16:15.456Z,10.00
2019-03-13T16:18:46.648Z,9.90
2019-03-13T16:21:17.848Z,9.50
2019-03-13T16:23:49.052Z,9.40
2019-03-13T16:26:20.611Z,9.50
2019-03-13T16:28:51.820Z,9.70
2019-03-13T16:31:23.492Z,9.70
2019-03-13T16:33:54.970Z,10.00
2019-03-13T16:36:26.024Z,10.10
2019-03-13T16:38:58.058Z,9.90
2019-03-13T16:41:29.381Z,9.90
2019-03-13T16:44:00.820Z,9.70
2019-03-13T16:46:32.022Z,9.80
2019-03-13T16:49:03.142Z,9.50
2019-03-13T16:51:33.942Z,9.70
2019-03-13T16:54:05.027Z,9.60
2019-03-13T16:56:36.231Z,9.10
2019-03-13T16:59:07.548Z,9.00
2019-03-13T17:01:38.271Z,8.80
2019-03-13T17:04:09.949Z,8.90
2019-03-13T17:06:41.151Z,9.10
2019-03-13T17:09:12.241Z,8.90
2019-03-13T17:11:44.157Z,8.80
2019-03-13T17:14:14.755Z,8.90
2019-03-13T17:16:45.598Z,8.70
2019-03-13T17:19:17.516Z,8.80
2019-03-13T17:21:48.244Z,9.00
2019-03-13T17:24:19.080Z,9.10
2019-03-13T17:26:49.686Z,9.20
2019-03-13T17:29:21.003Z,9.00
2019-03-13T17:31:52.565Z,9.10
2019-03-13T17:34:23.286Z,9.30
2019-03-13T17:36:54.130Z,9.10
2019-03-13T17:39:24.847Z,8.80
2019-03-13T17:41:55.811Z,8.70
2019-03-13T17:44:26.531Z,8.50
2019-03-13T17:46:57.375Z,8.50
2019-03-13T17:49:28.215Z,8.50
2019-03-13T17:51:59.175Z,8.60
2019-03-13T17:54:30.259Z,8.60
2019-03-13T17:57:00.978Z,8.90
2019-03-13T17:59:31.702Z,9.10
2019-03-13T18:02:02.302Z,9.20
2019-03-13T18:04:33.028Z,9.00
2019-03-13T18:07:03.744Z,8.70
2019-03-13T18:09:34.343Z,8.70
2019-03-13T18:12:04.947Z,9.00
2019-03-13T18:14:38.788Z,9.00
2019-03-13T18:17:09.509Z,9.10
2019-03-13T18:19:40.710Z,9.10
2019-03-13T18:22:11.432Z,9.00
2019-03-13T18:24:42.155Z,8.90
2019-03-13T18:27:13.115Z,8.80
2019-03-13T18:29:44.796Z,9.00
2019-03-13T18:32:15.397Z,9.00
2019-03-13T18:34:46.239Z,9.20
2019-03-13T18:37:16.957Z,9.20
2019-03-13T18:39:47.677Z,9.20
2019-03-13T18:42:18.410Z,9.10
2019-03-13T18:44:49.493Z,9.10
2019-03-13T18:47:20.205Z,9.20
2019-03-13T18:49:50.804Z,9.10
2019-03-13T18:52:21.529Z,8.80
2019-03-13T18:54:52.733Z,8.70
2019-03-13T18:57:23.455Z,8.60
2019-03-13T18:59:55.129Z,8.50
2019-03-13T19:02:25.733Z,8.60
2019-03-13T19:04:57.629Z,8.60
2019-03-13T19:07:28.614Z,8.70
2019-03-13T19:09:59.333Z,8.60
2019-03-13T19:12:30.179Z,8.80
2019-03-13T19:15:01.381Z,8.80
2019-03-13T19:17:32.344Z,8.70
2019-03-13T19:20:03.187Z,8.80
2019-03-13T19:22:34.385Z,8.80
2019-03-13T19:25:05.709Z,8.90
2019-03-13T19:27:36.429Z,8.80
2019-03-13T19:30:12.788Z,8.90
2019-03-13T19:32:43.627Z,8.70
2019-03-13T19:35:20.106Z,8.60
2019-03-13T19:37:50.832Z,8.70
2019-03-13T19:40:21.670Z,8.80
2019-03-13T19:42:52.635Z,8.80
2019-03-13T19:45:26.597Z,8.80
2019-03-13T19:47:57.678Z,8.90
2019-03-13T19:50:28.513Z,8.60
2019-03-13T19:52:59.482Z,8.80
2019-03-13T19:55:30.087Z,8.80
2019-03-13T19:58:00.926Z,8.90
2019-03-13T20:00:31.650Z,8.70
2019-03-13T20:03:03.085Z,8.60
2019-03-13T20:05:44.825Z,8.50
2019-03-13T20:08:07.165Z,8.60
2019-03-13T20:10:37.887Z,8.70
2019-03-13T20:13:08.736Z,8.50
2019-03-13T20:15:39.221Z,8.60
2019-03-13T20:18:09.934Z,8.50
2019-03-13T20:20:41.018Z,8.60
2019-03-13T20:23:12.093Z,8.50
2019-03-13T20:25:43.593Z,8.30
2019-03-13T20:28:14.741Z,8.30
2019-03-13T20:30:48.701Z,8.50
2019-03-13T20:33:20.029Z,8.60
2019-03-13T20:35:51.217Z,8.90
2019-03-13T20:38:22.067Z,8.80
2019-03-13T20:40:53.024Z,8.40
2019-03-13T20:43:24.233Z,8.30
2019-03-13T20:45:55.071Z,8.20
2019-03-13T20:48:26.027Z,8.30
2019-03-13T20:50:56.865Z,7.90
2019-03-13T20:53:27.589Z,8.00
2019-03-13T20:55:58.951Z,8.30
2019-03-13T20:58:30.592Z,8.10
2019-03-13T21:01:01.315Z,8.10
2019-03-13T21:03:32.392Z,8.10
2019-03-13T21:06:03.115Z,8.20
2019-03-13T21:08:36.480Z,7.90
2019-03-13T21:11:07.317Z,7.90
2019-03-13T21:13:43.210Z,7.70
2019-03-13T21:16:11.170Z,7.70
2019-03-13T21:18:42.847Z,7.70
2019-03-13T21:21:14.524Z,7.90
2019-03-13T21:23:46.686Z,7.90
2019-03-13T21:26:21.246Z,7.80
2019-03-13T21:28:53.084Z,7.60
2019-03-13T21:31:25.831Z,7.80
2019-03-13T21:33:56.891Z,8.00
2019-03-13T21:36:27.974Z,8.10
2019-03-13T21:38:59.174Z,8.20
2019-03-13T21:41:30.373Z,8.50
2019-03-13T21:44:05.424Z,8.20
2019-03-13T21:46:36.261Z,7.90
2019-03-13T21:49:08.320Z,7.80
2019-03-13T21:51:42.199Z,7.80
2019-03-13T21:54:15.145Z,8.00
2019-03-13T21:56:49.942Z,8.10
2019-03-13T21:59:21.149Z,8.00
2019-03-13T22:01:54.151Z,8.00
2019-03-13T22:04:25.230Z,8.10
2019-03-13T22:06:55.949Z,8.00
2019-03-13T22:09:27.045Z,7.90
2019-03-13T22:11:57.993Z,7.90
2019-03-13T22:14:28.956Z,7.70
2019-03-13T22:16:59.795Z,7.50
2019-03-13T22:19:30.876Z,7.70
2019-03-13T22:22:01.720Z,7.80
2019-03-13T22:24:34.000Z,7.90
2019-03-13T22:27:05.076Z,8.10
2019-03-13T22:29:36.516Z,8.00
2019-03-13T22:32:07.246Z,7.90
2019-03-13T22:34:37.848Z,7.90
2019-03-13T22:37:08.567Z,8.00
2019-03-13T22:39:40.850Z,8.00
2019-03-13T22:42:11.810Z,7.90
2019-03-13T22:44:43.490Z,7.90
2019-03-13T22:47:14.329Z,8.00
2019-03-13T22:49:44.841Z,8.20
2019-03-13T22:52:15.410Z,8.30
2019-03-13T22:54:47.450Z,8.20
2019-03-13T22:57:18.051Z,8.30
2019-03-13T22:59:49.138Z,8.10
2019-03-13T23:02:19.977Z,7.90
2019-03-13T23:04:51.418Z,7.70
2019-03-13T23:07:22.018Z,7.40
2019-03-13T23:09:52.620Z,7.60
2019-03-13T23:12:23.338Z,7.50
2019-03-13T23:14:53.953Z,7.40
2019-03-13T23:17:25.024Z,7.30
2019-03-13T23:19:55.747Z,7.50
2019-03-13T23:22:26.585Z,7.70
2019-03-13T23:24:57.308Z,8.00
2019-03-13T23:27:27.787Z,7.90
2019-03-13T23:29:58.269Z,7.70
2019-03-13T23:32:28.872Z,8.00
2019-03-13T23:34:59.354Z,7.80
2019-03-13T23:37:29.954Z,7.70
2019-03-13T23:40:00.448Z,7.70
2019-03-13T23:42:30.914Z,7.60
2019-03-13T23:45:02.960Z,7.30
2019-03-13T23:47:33.561Z,7.60
2019-03-13T23:50:04.521Z,7.60
2019-03-13T23:52:35.002Z,7.40
2019-03-13T23:55:05.841Z,7.60
2019-03-13T23:57:37.771Z,7.60
